Allied Gardens, CA

10:02 AM PDT on July 04, 2015 (GMT -0700)
JOHN DODGE *Allied Gardens* | | Change Station
CLOSE
Current Station
Personal Weather Station
Location: San Diego, CA
Elevation: 366 ft
Nearby Weather Stations

Elev 366 ft 32.79 °N, 117.08 °W | Updated 3 seconds ago

Overcast
Overcast
72.1 °F
Feels Like 74 °F
N
5.0
Wind Variable Wind from WSW
Gusts 5.0 mph

Today
High -- | Low -- °F
--% Chance of Precip.
Yesterday
High -- | Low -- °F
Precip. -- in
5:45 AM 8:00 PM
Waning Gibbous, 91% visible
Pressure 29.91 in
Visibility 10.0 miles
Clouds Overcast 1300 ft
Heat Index 74 °F
Dew Point 63 °F
Humidity 72%
Rainfall 0.00 in
Snow Depth Not available.
UV 2 out of 12
Pollen 4.70 out of 12
Air Quality Not available.
Flu Activity Not available.
METAR KMYF 041653Z 26006KT 10SM OVC013 21/16 A2991 RMK AO2 SLP126 T02060156

More Conditions Fewer Conditions

Pressure 29.91 in
Visibility 10.0 miles
Clouds Overcast 1300 ft
Heat Index 74 °F
Dew Point 63 °F
Humidity 72%
Rainfall 0.00 in
Snow Depth Not available.
UV 2 out of 12
Pollen 4.70 out of 12
Air Quality Not available.
Flu Activity Not available.
METAR KMYF 041653Z 26006KT 10SM OVC013 21/16 A2991 RMK AO2 SLP126 T02060156

More Conditions Fewer Conditions

10-Day Weather Forecast

×

Almanac

Astronomy

Jul. 04, 2015 Rise Set
Actual Time
Civil Twilight
Nautical Twilight
Astronomical Twilight
Moon
Length of Visible Light
Length of Day
Tomorrow will be .
, % of the Moon is Illuminated

Today's Extremes

State Highs State Lows

Community

WunderPhotos

Upload Photos

1,835,003 photos uploaded!

WunderBlogs® & News

Nearby

Air Quality

  Air Quality AQ Index Pollutant
Not available.

Snow Depth

Station Depth Elevation

Earthquake Activity

City Distance Mag. Time & Date
Minimum magnitude displayed is 2.5.

Coastal Water Temperatures

Place Temperature

Stations

Nearby Weather Stations

Station Location Temp. Windchill Dew Point Humidity Wind Precip. Elev Updated Type